createdAt,value
2022-10-29T00:01:44.475Z,8.80
2022-10-29T00:04:12.421Z,9.03
2022-10-29T00:06:40.321Z,8.55
2022-10-29T00:09:08.439Z,8.50
2022-10-29T00:11:36.356Z,7.80
2022-10-29T00:14:04.171Z,8.05
2022-10-29T00:16:37.900Z,7.65
2022-10-29T00:19:07.330Z,7.38
2022-10-29T00:21:35.579Z,7.68
2022-10-29T00:24:03.471Z,7.32
2022-10-29T00:26:31.421Z,7.82
2022-10-29T00:28:59.303Z,7.90
2022-10-29T00:31:27.220Z,7.80
2022-10-29T00:33:56.358Z,7.80
2022-10-29T00:36:26.837Z,7.80
2022-10-29T00:38:54.757Z,7.53
2022-10-29T00:41:26.564Z,7.50
2022-10-29T00:44:26.358Z,7.50
2022-10-29T00:46:56.942Z,7.00
2022-10-29T00:49:25.579Z,7.63
2022-10-29T00:51:54.780Z,7.57
2022-10-29T00:54:22.620Z,7.60
2022-10-29T00:56:52.290Z,7.90
2022-10-29T00:59:20.501Z,7.75
2022-10-29T01:01:49.669Z,7.32
2022-10-29T01:04:18.434Z,8.05
2022-10-29T01:06:47.091Z,8.00
2022-10-29T01:09:16.481Z,8.05
2022-10-29T01:11:53.042Z,7.97
2022-10-29T01:14:28.586Z,8.20
2022-10-29T01:17:01.432Z,7.65
2022-10-29T01:19:47.337Z,8.10
2022-10-29T01:22:17.533Z,8.13
2022-10-29T01:25:01.713Z,8.07
2022-10-29T01:27:49.235Z,8.02
2022-10-29T01:30:22.014Z,8.10
2022-10-29T01:33:10.422Z,8.27
2022-10-29T01:35:46.652Z,8.00
2022-10-29T01:38:23.522Z,7.63
2022-10-29T01:40:56.731Z,7.43
2022-10-29T01:43:27.023Z,6.85
2022-10-29T01:45:59.635Z,8.07
2022-10-29T01:48:33.370Z,7.47
2022-10-29T01:51:05.202Z,7.72
2022-10-29T01:53:36.208Z,7.47
2022-10-29T01:56:04.316Z,7.97
2022-10-29T01:58:32.966Z,7.55
2022-10-29T02:01:08.237Z,7.45
2022-10-29T02:03:51.222Z,7.85
2022-10-29T02:06:29.338Z,7.18
2022-10-29T02:09:02.837Z,7.10
2022-10-29T02:11:35.659Z,7.28
2022-10-29T02:14:05.152Z,7.30
2022-10-29T02:16:34.510Z,7.65
2022-10-29T02:19:03.834Z,7.05
2022-10-29T02:21:31.697Z,7.97
2022-10-29T02:23:59.570Z,8.20
2022-10-29T02:26:27.443Z,7.72
2022-10-29T02:28:55.264Z,7.70
2022-10-29T02:31:23.180Z,7.70
2022-10-29T02:33:51.013Z,8.00
2022-10-29T02:36:20.310Z,8.20
2022-10-29T02:38:48.156Z,8.05
2022-10-29T02:41:16.068Z,7.85
2022-10-29T02:43:44.016Z,8.30
2022-10-29T02:46:13.628Z,8.07
2022-10-29T02:48:41.535Z,7.60
2022-10-29T02:51:09.465Z,7.65
2022-10-29T02:53:38.944Z,7.93
2022-10-29T02:56:07.976Z,8.50
2022-10-29T02:58:36.228Z,7.72
2022-10-29T03:01:04.557Z,7.57
2022-10-29T03:03:32.404Z,8.00
2022-10-29T03:06:00.296Z,8.10
2022-10-29T03:08:28.325Z,8.00
2022-10-29T03:10:57.560Z,7.90
2022-10-29T03:13:25.553Z,8.18
2022-10-29T03:15:53.380Z,8.15
2022-10-29T03:18:21.208Z,8.23
2022-10-29T03:20:49.099Z,8.07
2022-10-29T03:23:16.956Z,8.80
2022-10-29T03:25:44.889Z,8.43
2022-10-29T03:28:14.115Z,8.50
2022-10-29T03:30:42.001Z,8.60
2022-10-29T03:33:09.918Z,7.88
2022-10-29T03:35:37.829Z,7.53
2022-10-29T03:38:05.784Z,8.05
2022-10-29T03:40:33.604Z,8.30
2022-10-29T03:43:01.674Z,8.40
2022-10-29T03:45:30.844Z,8.70
2022-10-29T03:47:58.918Z,8.45
2022-10-29T03:50:27.059Z,8.25
2022-10-29T03:52:54.941Z,8.23
2022-10-29T03:55:22.812Z,8.55
2022-10-29T03:57:50.777Z,8.10
2022-10-29T04:00:18.745Z,8.60
2022-10-29T04:02:48.230Z,8.52
2022-10-29T04:05:16.251Z,8.70
2022-10-29T04:07:44.189Z,8.85
2022-10-29T04:10:12.229Z,8.27
2022-10-29T04:12:40.043Z,8.90
2022-10-29T04:15:08.735Z,8.40
2022-10-29T04:17:36.589Z,8.60
2022-10-29T04:20:13.795Z,8.15
2022-10-29T04:28:45.395Z,8.55
2022-10-29T04:31:13.855Z,8.80
2022-10-29T04:33:41.710Z,8.45
2022-10-29T04:36:11.177Z,8.80
2022-10-29T04:38:39.156Z,8.38
2022-10-29T04:41:07.069Z,8.80
2022-10-29T04:43:34.943Z,8.43
2022-10-29T04:46:03.025Z,8.68
2022-10-29T04:48:30.946Z,9.40
2022-10-29T04:50:58.738Z,9.70
2022-10-29T04:53:27.921Z,8.82
2022-10-29T04:56:01.310Z,9.02
2022-10-29T04:58:29.539Z,9.25
2022-10-29T05:01:02.942Z,8.90
2022-10-29T05:03:30.970Z,9.23
2022-10-29T05:05:58.869Z,8.07
2022-10-29T05:08:28.091Z,8.77
2022-10-29T05:10:56.054Z,8.23
2022-10-29T05:13:23.995Z,8.63
2022-10-29T05:15:53.538Z,8.70
2022-10-29T05:18:21.675Z,10.53
2022-10-29T05:20:49.545Z,9.82
2022-10-29T05:23:17.310Z,10.73
2022-10-29T05:25:49.092Z,10.60
2022-10-29T05:28:19.362Z,10.40
2022-10-29T05:30:47.679Z,9.52
2022-10-29T05:33:16.938Z,8.93
2022-10-29T05:35:45.128Z,9.23
2022-10-29T05:38:13.923Z,8.02
2022-10-29T05:40:42.775Z,8.40
2022-10-29T05:43:12.051Z,9.27
2022-10-29T05:45:39.925Z,8.45
2022-10-29T05:48:08.116Z,8.30
2022-10-29T05:50:36.052Z,8.30
2022-10-29T05:53:05.611Z,9.73
2022-10-29T05:55:34.937Z,8.93
2022-10-29T05:58:04.045Z,9.33
2022-10-29T06:00:35.151Z,8.85
2022-10-29T06:03:03.073Z,8.70
2022-10-29T06:05:31.126Z,8.95
2022-10-29T06:08:00.763Z,9.13
2022-10-29T06:10:30.658Z,8.67
2022-10-29T06:12:58.480Z,9.02
2022-10-29T06:15:26.450Z,8.88
2022-10-29T06:17:56.098Z,8.85
2022-10-29T06:20:24.148Z,9.10
2022-10-29T06:22:58.095Z,8.82
2022-10-29T06:25:26.585Z,8.85
2022-10-29T06:28:01.963Z,9.02
2022-10-29T06:30:30.458Z,9.07
2022-10-29T06:32:59.991Z,11.05
2022-10-29T06:35:28.384Z,9.88
2022-10-29T06:37:56.659Z,9.60
2022-10-29T06:40:24.770Z,10.50
2022-10-29T06:42:59.963Z,8.90
2022-10-29T06:45:28.086Z,8.77
2022-10-29T06:47:56.135Z,8.55
2022-10-29T06:50:25.987Z,8.00
2022-10-29T06:52:58.571Z,8.50
2022-10-29T06:55:27.139Z,8.38
2022-10-29T06:57:58.903Z,8.75
2022-10-29T07:00:26.809Z,8.40
2022-10-29T07:02:55.144Z,8.30
2022-10-29T07:05:23.588Z,8.15
2022-10-29T07:07:56.055Z,7.90
2022-10-29T07:10:24.464Z,8.23
2022-10-29T07:12:52.269Z,8.60
2022-10-29T07:15:23.012Z,9.00
2022-10-29T07:17:59.348Z,8.90
2022-10-29T07:20:27.732Z,8.18
2022-10-29T07:22:57.576Z,8.23
2022-10-29T07:25:25.638Z,8.43
2022-10-29T07:27:53.694Z,8.32
2022-10-29T07:30:22.578Z,8.32
2022-10-29T07:32:50.453Z,8.13
2022-10-29T07:35:18.414Z,9.00
2022-10-29T07:37:46.338Z,8.32
2022-10-29T07:40:15.808Z,8.05
2022-10-29T07:42:43.657Z,8.20
2022-10-29T07:45:12.011Z,7.82
2022-10-29T07:47:39.979Z,7.30
2022-10-29T07:50:08.942Z,6.70
2022-10-29T07:52:36.812Z,7.20
2022-10-29T07:55:04.781Z,7.30
2022-10-29T07:57:34.011Z,6.20
2022-10-29T08:00:02.192Z,6.60
2022-10-29T08:02:40.018Z,7.03
2022-10-29T08:05:08.731Z,6.88
2022-10-29T08:07:36.593Z,6.65
2022-10-29T08:10:04.497Z,7.00
2022-10-29T08:12:33.920Z,6.43
2022-10-29T08:15:01.805Z,6.40
2022-10-29T08:17:30.486Z,6.70
2022-10-29T08:19:58.569Z,6.80
2022-10-29T08:22:26.434Z,7.00
2022-10-29T08:24:54.318Z,6.50
2022-10-29T08:27:22.193Z,6.60
2022-10-29T08:29:51.432Z,6.28
2022-10-29T08:32:19.309Z,6.38
2022-10-29T08:35:07.161Z,6.75
2022-10-29T08:37:35.063Z,6.68
2022-10-29T08:40:02.877Z,6.95
2022-10-29T08:42:43.755Z,6.68
2022-10-29T08:45:21.456Z,6.25
2022-10-29T08:48:11.468Z,4.97
2022-10-29T08:50:41.999Z,5.32
2022-10-29T08:53:23.439Z,5.03
2022-10-29T08:55:52.389Z,5.10
2022-10-29T08:58:25.341Z,5.28
2022-10-29T09:00:57.516Z,4.70
2022-10-29T09:03:26.195Z,5.22
2022-10-29T09:06:01.522Z,4.50
2022-10-29T09:08:38.820Z,4.60
2022-10-29T09:11:17.240Z,4.85
2022-10-29T09:13:50.809Z,4.80
2022-10-29T09:16:37.847Z,5.05
2022-10-29T09:19:29.876Z,4.82
2022-10-29T09:22:03.573Z,5.00
2022-10-29T09:24:36.152Z,4.93
2022-10-29T09:27:10.785Z,4.30
2022-10-29T09:29:59.579Z,4.97
2022-10-29T09:32:31.806Z,4.40
2022-10-29T09:35:03.196Z,4.97
2022-10-29T09:37:37.182Z,5.03
2022-10-29T09:40:07.812Z,4.82
2022-10-29T09:42:38.106Z,4.20
2022-10-29T09:45:09.446Z,4.28
2022-10-29T09:47:44.017Z,4.00
2022-10-29T09:50:18.058Z,4.10
2022-10-29T09:52:47.070Z,3.60
2022-10-29T09:55:19.943Z,3.60
2022-10-29T09:57:49.686Z,3.70
2022-10-29T10:00:21.856Z,3.67
2022-10-29T10:02:55.818Z,4.22
2022-10-29T10:05:27.353Z,4.03
2022-10-29T10:08:10.775Z,3.80
2022-10-29T10:10:51.197Z,4.30
2022-10-29T10:13:21.779Z,3.45
2022-10-29T10:15:55.186Z,4.05
2022-10-29T11:28:39.800Z,4.03
2022-10-29T11:31:13.882Z,3.80
2022-10-29T11:33:47.196Z,3.92
2022-10-29T11:36:18.577Z,3.85
2022-10-29T11:38:49.348Z,4.88
2022-10-29T11:41:24.610Z,4.15
2022-10-29T11:43:52.714Z,4.32
2022-10-29T11:46:27.911Z,3.83
2022-10-29T11:49:04.093Z,4.43
2022-10-29T11:51:36.875Z,4.13
2022-10-29T11:54:09.341Z,3.92
2022-10-29T11:56:48.580Z,4.55
2022-10-29T11:59:23.961Z,4.00
2022-10-29T12:01:59.020Z,4.60
2022-10-29T12:04:32.338Z,4.20
2022-10-29T12:07:15.517Z,3.92
2022-10-29T12:10:02.693Z,3.92
2022-10-29T12:12:38.317Z,3.92
2022-10-29T12:15:14.951Z,4.72
2022-10-29T12:17:46.640Z,4.85
2022-10-29T12:20:22.149Z,4.20
2022-10-29T12:23:02.559Z,4.68
2022-10-29T12:25:40.510Z,4.22
2022-10-29T12:28:19.225Z,3.90
2022-10-29T12:30:55.819Z,3.28
2022-10-29T12:33:26.197Z,3.78
2022-10-29T12:35:59.244Z,3.90
2022-10-29T12:38:37.063Z,3.53
2022-10-29T12:41:07.389Z,4.03
2022-10-29T12:43:37.421Z,3.72
2022-10-29T12:46:19.881Z,4.15
2022-10-29T12:48:57.416Z,3.85
2022-10-29T12:51:29.543Z,3.35
2022-10-29T12:54:17.433Z,3.80
2022-10-29T12:56:47.911Z,3.50
2022-10-29T12:59:34.728Z,3.70
2022-10-29T13:02:24.091Z,3.67
2022-10-29T13:05:14.920Z,3.05
2022-10-29T13:08:20.077Z,3.20
2022-10-29T13:10:52.880Z,3.42
2022-10-29T13:13:27.366Z,3.70
2022-10-29T13:16:02.295Z,3.42
2022-10-29T13:18:33.971Z,4.10
2022-10-29T13:21:04.309Z,4.15
2022-10-29T13:23:35.000Z,3.80
2022-10-29T13:26:03.630Z,3.67
2022-10-29T13:29:01.537Z,4.10
2022-10-29T13:31:50.388Z,3.90
2022-10-29T13:34:51.570Z,3.90
2022-10-29T13:37:39.620Z,4.25
2022-10-29T13:40:47.249Z,3.60
2022-10-29T13:43:19.807Z,3.60
2022-10-29T13:45:51.412Z,4.15
2022-10-29T13:48:26.500Z,4.10
2022-10-29T13:50:56.421Z,3.90
2022-10-29T13:53:28.691Z,3.90
2022-10-29T13:55:57.020Z,3.90
2022-10-29T13:58:29.298Z,4.10
2022-10-29T14:00:58.485Z,3.42
2022-10-29T14:03:32.453Z,4.03
2022-10-29T14:06:01.943Z,4.22
2022-10-29T14:08:36.541Z,4.15
2022-10-29T14:11:10.368Z,3.90
2022-10-29T14:13:45.614Z,3.83
2022-10-29T14:16:15.370Z,3.80
2022-10-29T14:18:45.573Z,4.25
2022-10-29T14:21:15.675Z,3.72
2022-10-29T14:23:56.134Z,3.58
2022-10-29T14:26:24.864Z,3.47
2022-10-29T14:28:53.231Z,3.65
2022-10-29T14:31:22.634Z,4.32
2022-10-29T14:33:56.756Z,3.38
2022-10-29T14:36:30.386Z,4.00
2022-10-29T14:39:00.672Z,4.28
2022-10-29T14:41:30.014Z,3.92
2022-10-29T14:44:04.696Z,4.10
2022-10-29T14:46:34.977Z,4.13
2022-10-29T14:49:12.795Z,3.90
2022-10-29T14:51:42.013Z,4.65
2022-10-29T14:54:17.652Z,3.90
2022-10-29T14:56:46.328Z,4.18
2022-10-29T14:59:21.691Z,3.42
2022-10-29T15:01:56.727Z,4.15
2022-10-29T15:04:31.469Z,4.10
2022-10-29T15:07:23.477Z,4.40
2022-10-29T15:09:52.048Z,4.28
2022-10-29T15:12:22.395Z,3.70
2022-10-29T15:14:51.828Z,5.47
2022-10-29T15:17:22.939Z,5.10
2022-10-29T15:19:54.269Z,4.32
2022-10-29T15:22:26.957Z,6.00
2022-10-29T15:24:56.032Z,5.50
2022-10-29T15:27:24.376Z,5.18
2022-10-29T15:29:53.439Z,5.30
2022-10-29T15:32:22.740Z,5.22
2022-10-29T15:34:54.180Z,4.70
2022-10-29T15:37:25.505Z,4.90
2022-10-29T15:40:12.246Z,4.70
2022-10-29T15:42:40.296Z,6.13
2022-10-29T15:45:19.536Z,5.53
2022-10-29T15:47:49.360Z,5.18
2022-10-29T15:50:20.906Z,5.05
2022-10-29T15:52:53.514Z,5.22
2022-10-29T15:55:26.764Z,8.57
2022-10-29T15:57:57.052Z,6.37
2022-10-29T16:00:25.182Z,6.70
2022-10-29T16:02:53.135Z,5.60
2022-10-29T16:05:22.340Z,6.72
2022-10-29T16:07:50.315Z,5.40
2022-10-29T16:10:20.651Z,6.10
2022-10-29T16:12:49.658Z,5.40
2022-10-29T16:15:19.250Z,5.70
2022-10-29T16:17:47.931Z,5.07
2022-10-29T16:20:17.248Z,5.75
2022-10-29T16:22:47.042Z,6.28
2022-10-29T16:25:22.783Z,5.70
2022-10-29T16:27:50.977Z,6.38
2022-10-29T16:30:19.859Z,6.00
2022-10-29T16:32:49.822Z,5.43
2022-10-29T16:35:20.740Z,5.30
2022-10-29T16:37:50.739Z,4.82
2022-10-29T16:40:19.382Z,4.60
2022-10-29T16:42:47.688Z,4.90
2022-10-29T16:45:17.377Z,4.60
2022-10-29T16:47:45.314Z,4.25
2022-10-29T16:50:21.007Z,3.35
2022-10-29T16:52:57.701Z,3.95
2022-10-29T16:55:25.659Z,5.30
2022-10-29T16:57:53.604Z,5.22
2022-10-29T17:00:22.151Z,5.38
2022-10-29T17:02:49.992Z,5.13
2022-10-29T17:05:18.155Z,8.85
2022-10-29T17:07:45.932Z,6.22
2022-10-29T17:10:15.202Z,6.07
2022-10-29T17:12:43.009Z,5.45
2022-10-29T17:15:11.411Z,5.22
2022-10-29T17:17:42.387Z,4.68
2022-10-29T17:20:13.316Z,5.10
2022-10-29T17:22:41.255Z,4.90
2022-10-29T17:25:10.569Z,6.80
2022-10-29T17:27:40.612Z,4.88
2022-10-29T17:30:10.427Z,5.63
2022-10-29T17:32:38.394Z,5.15
2022-10-29T17:35:07.023Z,5.13
2022-10-29T17:37:34.915Z,4.97
2022-10-29T17:40:06.782Z,5.60
2022-10-29T17:42:36.121Z,5.17
2022-10-29T17:45:06.140Z,5.05
2022-10-29T17:47:34.087Z,5.45
2022-10-29T17:50:01.968Z,5.00
2022-10-29T17:52:29.890Z,18.65
2022-10-29T17:54:57.742Z,5.43
2022-10-29T17:57:25.616Z,4.97
2022-10-29T17:59:53.459Z,6.03
2022-10-29T18:02:22.914Z,6.10
2022-10-29T18:04:50.944Z,8.18
2022-10-29T18:07:19.070Z,7.18
2022-10-29T18:09:46.963Z,6.22
2022-10-29T18:12:14.784Z,6.18
2022-10-29T18:14:42.706Z,5.07
2022-10-29T18:17:10.591Z,5.50
2022-10-29T18:19:39.847Z,4.93
2022-10-29T18:22:07.802Z,6.50
2022-10-29T18:24:35.703Z,4.63
2022-10-29T18:27:03.601Z,4.80
2022-10-29T18:29:31.439Z,4.78
2022-10-29T18:31:59.527Z,5.37
2022-10-29T18:34:27.478Z,5.50
2022-10-29T18:36:56.682Z,4.57
2022-10-29T18:39:24.549Z,4.88
2022-10-29T18:41:52.479Z,3.90
2022-10-29T18:44:20.309Z,4.30
2022-10-29T18:46:48.178Z,3.90
2022-10-29T18:49:16.197Z,3.95
2022-10-29T18:51:44.130Z,4.20
2022-10-29T18:54:14.600Z,4.70
2022-10-29T18:56:42.777Z,4.80
2022-10-29T18:59:11.453Z,4.10
2022-10-29T19:01:39.820Z,4.18
2022-10-29T19:04:12.638Z,3.75
2022-10-29T19:06:40.559Z,3.70
2022-10-29T19:09:10.119Z,3.60
2022-10-29T19:11:39.341Z,3.55
2022-10-29T19:14:08.804Z,4.10
2022-10-29T19:16:36.710Z,4.00
2022-10-29T19:21:35.661Z,3.90
2022-10-29T19:24:03.561Z,3.70
2022-10-29T19:26:34.893Z,3.72
2022-10-29T19:29:05.547Z,4.10
2022-10-29T19:31:34.232Z,3.80
2022-10-29T19:34:05.456Z,3.95
2022-10-29T19:36:34.442Z,3.90
2022-10-29T19:39:02.429Z,3.67
2022-10-29T19:41:30.566Z,3.70
2022-10-29T19:44:01.026Z,4.25
2022-10-29T19:46:30.753Z,3.92
2022-10-29T19:48:59.112Z,3.97
2022-10-29T19:51:26.986Z,3.55
2022-10-29T19:53:57.207Z,3.90
2022-10-29T19:56:25.055Z,3.88
2022-10-29T19:58:52.900Z,3.87
2022-10-29T20:01:20.949Z,4.00
2022-10-29T20:03:50.324Z,3.42
2022-10-29T20:06:18.368Z,4.20
2022-10-29T20:08:46.336Z,4.20
2022-10-29T20:11:14.203Z,4.13
2022-10-29T20:13:42.141Z,3.65
2022-10-29T20:16:10.866Z,4.13
2022-10-29T20:18:39.741Z,4.50
2022-10-29T20:21:09.019Z,3.60
2022-10-29T20:23:37.326Z,4.15
2022-10-29T20:26:05.296Z,3.70
2022-10-29T20:28:33.282Z,4.17
2022-10-29T20:31:15.254Z,4.13
2022-10-29T20:33:43.457Z,4.00
2022-10-29T20:36:12.713Z,4.32
2022-10-29T20:38:40.604Z,4.18
2022-10-29T20:41:08.482Z,4.28
2022-10-29T20:43:36.484Z,3.97
2022-10-29T20:46:04.591Z,4.30
2022-10-29T20:48:32.772Z,4.07
2022-10-29T20:51:00.600Z,3.83
2022-10-29T20:53:29.941Z,4.40
2022-10-29T20:55:57.815Z,3.88
2022-10-29T20:58:25.771Z,3.80
2022-10-29T21:00:53.672Z,3.80
2022-10-29T21:03:21.569Z,3.85
2022-10-29T21:05:49.472Z,4.38
2022-10-29T21:08:17.723Z,3.97
2022-10-29T21:10:46.933Z,3.80
2022-10-29T21:13:14.807Z,4.07
2022-10-29T21:15:42.631Z,3.93
2022-10-29T21:18:10.404Z,4.07
2022-10-29T21:20:38.238Z,3.88
2022-10-29T21:23:06.227Z,3.80
2022-10-29T21:25:34.163Z,4.32
2022-10-29T21:28:03.320Z,3.70
2022-10-29T21:30:31.192Z,4.22
2022-10-29T21:32:59.002Z,4.45
2022-10-29T21:35:26.817Z,3.80
2022-10-29T21:37:54.958Z,4.07
2022-10-29T21:40:23.116Z,4.10
2022-10-29T21:42:50.911Z,3.72
2022-10-29T21:45:20.145Z,3.95
2022-10-29T21:47:49.379Z,4.35
2022-10-29T21:50:17.246Z,4.15
2022-10-29T21:52:45.092Z,4.00
2022-10-29T21:55:12.874Z,3.90
2022-10-29T21:57:43.716Z,3.95
2022-10-29T22:00:13.899Z,4.20
2022-10-29T22:02:43.240Z,3.88
2022-10-29T22:05:11.377Z,3.75
2022-10-29T22:07:39.239Z,4.00
2022-10-29T22:10:07.877Z,4.30
2022-10-29T22:12:35.748Z,3.90
2022-10-29T22:15:04.267Z,3.92
2022-10-29T22:17:32.441Z,4.25
2022-10-29T22:20:01.688Z,4.18
2022-10-29T22:22:29.540Z,3.70
2022-10-29T22:24:57.368Z,3.83
2022-10-29T22:27:25.234Z,3.97
2022-10-29T22:29:54.469Z,3.85
2022-10-29T22:32:22.570Z,3.72
2022-10-29T22:34:50.382Z,3.85
2022-10-29T22:37:19.591Z,3.65
2022-10-29T22:39:47.771Z,4.00
2022-10-29T22:42:16.102Z,4.10
2022-10-29T22:44:43.974Z,3.95
2022-10-29T22:47:11.891Z,4.15
2022-10-29T22:49:39.680Z,3.95
2022-10-29T22:52:07.544Z,3.73
2022-10-29T22:54:36.738Z,3.90
2022-10-29T22:57:04.715Z,3.65
2022-10-29T22:59:32.585Z,3.90
2022-10-29T23:02:00.524Z,4.00
2022-10-29T23:04:28.662Z,4.00
2022-10-29T23:07:01.626Z,4.63
2022-10-29T23:09:29.559Z,4.30
2022-10-29T23:11:58.775Z,3.78
2022-10-29T23:14:26.654Z,3.95
2022-10-29T23:16:54.550Z,3.53
2022-10-29T23:19:22.604Z,4.30
2022-10-29T23:21:50.446Z,4.25
2022-10-29T23:24:18.287Z,4.00
2022-10-29T23:26:46.273Z,3.85
2022-10-29T23:29:15.477Z,4.13
2022-10-29T23:31:43.347Z,4.65
2022-10-29T23:34:12.652Z,4.13
2022-10-29T23:36:40.440Z,3.80
2022-10-29T23:39:08.423Z,3.95
2022-10-29T23:41:36.353Z,3.80
2022-10-29T23:44:04.830Z,3.80
2022-10-29T23:46:34.123Z,4.32
2022-10-29T23:49:01.895Z,3.83
2022-10-29T23:51:29.953Z,4.00
2022-10-29T23:53:57.939Z,4.30
2022-10-29T23:56:26.026Z,3.97
2022-10-29T23:58:53.890Z,3.90
